TimeMST,TemperatureF,Dew PointF,Humidity,Sea Level PressureIn,VisibilityMPH,Wind Direction,Wind SpeedMPH,Gust SpeedMPH,PrecipitationIn,Events,Conditions,WindDirDegrees,DateUTC
12:53 AM,19.9,17.1,89,29.71,10.0,Calm,Calm,-,N/A,,Clear,0,2012-12-12 07:53:00
1:53 AM,18.0,16.0,92,29.71,10.0,Calm,Calm,-,N/A,,Clear,0,2012-12-12 08:53:00
2:53 AM,19.9,16.0,85,29.70,10.0,Calm,Calm,-,N/A,,Clear,0,2012-12-12 09:53:00
3:53 AM,19.9,16.0,85,29.70,10.0,South,3.5,-,N/A,,Clear,190,2012-12-12 10:53:00
4:53 AM,19.0,16.0,88,29.71,10.0,SSE,3.5,-,N/A,,Clear,150,2012-12-12 11:53:00
5:53 AM,18.0,16.0,92,29.73,10.0,Calm,Calm,-,N/A,,Clear,0,2012-12-12 12:53:00
6:53 AM,17.1,15.1,92,29.72,10.0,Calm,Calm,-,N/A,,Clear,0,2012-12-12 13:53:00
7:53 AM,12.9,10.9,92,29.73,10.0,SSW,3.5,-,N/A,,Clear,210,2012-12-12 14:53:00
8:53 AM,19.9,16.0,85,29.70,10.0,Calm,Calm,-,N/A,,Clear,0,2012-12-12 15:53:00
9:53 AM,26.1,19.0,75,29.69,10.0,Calm,Calm,-,N/A,,Clear,0,2012-12-12 16:53:00
10:30 AM,39.2,23.0,52,29.58,10.0,South,18.4,-,N/A,,Clear,170,2012-12-12 17:30:00
10:53 AM,41.0,23.0,49,29.65,10.0,South,19.6,-,N/A,,Clear,170,2012-12-12 17:53:00
11:53 AM,44.1,24.1,45,29.62,10.0,South,15.0,-,N/A,,Clear,170,2012-12-12 18:53:00
12:53 PM,46.9,24.1,41,29.60,10.0,SSW,17.3,26.5,N/A,,Clear,210,2012-12-12 19:53:00
1:53 PM,48.0,24.1,39,29.62,10.0,SW,19.6,-,N/A,,Clear,220,2012-12-12 20:53:00
2:53 PM,48.0,21.9,36,29.65,10.0,SW,20.7,26.5,N/A,,Clear,230,2012-12-12 21:53:00
3:53 PM,45.0,21.9,40,29.68,10.0,WSW,13.8,-,N/A,,Clear,240,2012-12-12 22:53:00
4:53 PM,42.1,19.0,40,29.73,10.0,SW,16.1,-,N/A,,Clear,230,2012-12-12 23:53:00
5:53 PM,37.0,19.0,48,29.79,10.0,SW,12.7,-,N/A,,Clear,220,2012-12-13 00:53:00
6:53 PM,35.1,19.0,52,29.83,10.0,North,-9999.0,-,N/A,,Clear,0,2012-12-13 01:53:00
7:53 PM,30.0,19.0,64,29.89,10.0,Calm,Calm,-,N/A,,Clear,0,2012-12-13 02:53:00
8:53 PM,26.1,19.9,78,29.94,10.0,North,8.1,-,N/A,,Clear,10,2012-12-13 03:53:00
9:53 PM,27.0,21.9,81,29.93,10.0,NNE,5.8,-,N/A,,Clear,20,2012-12-13 04:53:00
10:53 PM,21.9,19.0,89,29.92,10.0,South,5.8,-,N/A,,Clear,190,2012-12-13 05:53:00
11:53 PM,23.0,19.9,88,29.93,10.0,South,9.2,-,N/A,,Clear,180,2012-12-13 06:53:00